Aviation Digital Data Service (ADDS)

Output produced by METARs form (0541 UTC 25 February 2018)
found at http://aviationweather.gov/adds/metars/
 
KIPT 250454Z AUTO 06009KT 4SM -RA BR OVC012 06/06 A3011 RMK AO2 RAB49 SLP199 P0001 T00610056 400720044
KIPT 250411Z AUTO 09008KT 5SM BR BKN013 BKN020 OVC029 06/06 A3012 RMK AO2 T00610056
KIPT 250354Z AUTO 07011KT 4SM BR SCT013 BKN020 OVC027 06/06 A3011 RMK AO2 PRESFR SLP201 T00610056
KIPT 250338Z AUTO 08010KT 4SM BR FEW021 BKN026 OVC035 06/06 A3014 RMK AO2 T00610056
KIPT 250254Z 08008KT 10SM BKN032 OVC040 06/06 A3014 RMK AO2 SLP212 T00610056 58007
KIPT 250228Z 08008KT 10SM SCT011 OVC040 07/06 A3015 RMK AO2 T00670056
KIPT 250154Z 09009KT 10SM BKN011 OVC043 07/06 A3015 RMK AO2 SLP215 T00670056
KIPT 250135Z 08006KT 10SM SCT010 OVC043 07/06 A3015 RMK AO2 T00670061
KIPT 250109Z 10004KT 6SM BR OVC011 06/06 A3016 RMK AO2 T00610061
KIPT 250054Z 00000KT 3SM BR OVC009 06/06 A3017 RMK AO2 SLP221 T00610061
KIPT 250002Z 33005KT 7SM OVC009 07/06 A3017 RMK AO2 CIG 007V014 T00670061
KIPT 242354Z 00000KT 8SM OVC011 07/07 A3016 RMK AO2 RAE28 CIG 008V015 SLP218 P0002 60022 T00670067 10072 20061 53006
KIPT 242331Z 35003KT 8SM FEW004 BKN013 OVC047 07/07 A3015 RMK AO2 RAE28 P0002 T00670067
KIPT 242254Z 00000KT 4SM -RA BR SCT006 OVC080 06/06 A3013 RMK AO2 SLP207 P0005 T00610061
KIPT 242235Z 03003KT 4SM -RA BR SCT006 OVC080 07/07 A3013 RMK AO2 P0004 T00670067
KIPT 242216Z 00000KT 4SM -RA BR BKN006 OVC080 07/07 A3013 RMK AO2 P0002 T00670067
KIPT 242154Z 00000KT 5SM -RA BR FEW006 SCT010 OVC080 07/06 A3014 RMK AO2 SLP212 P0003 T00670061
KIPT 242054Z 00000KT 4SM -RA BR SCT006 BKN070 OVC090 07/06 A3015 RMK AO2 SLP211 P0002 60012 T00720061 58006
KIPT 241954Z 00000KT 4SM -RA BR SCT006 SCT055 OVC080 07/07 A3018 RMK AO2 SLP223 P0004 T00670067
KIPT 241901Z 00000KT 4SM -RA BR SCT006 SCT060 OVC075 07/07 A3016 RMK AO2 P0001 T00670067
KIPT 241854Z 00000KT 2 1/2SM RA BR BKN005 BKN055 OVC075 07/07 A3016 RMK AO2 SLP215 P0006 T00670067
KIPT 241754Z 00000KT 2 1/2SM -RA BR BKN005 OVC070 06/06 A3016 RMK AO2 SLP218 P0004 60016 T00610061 10061 20044 58019
KIPT 241738Z 00000KT 2 1/2SM -RA BR BKN005 OVC070 06/06 A3017 RMK AO2 P0003 T00610061
KIPT 241703Z 27003KT 3SM -RA BR SCT004 BKN070 OVC085 06/06 A3019 RMK AO2 P0001 T00610056
KIPT 241701Z 26004KT 4SM RA BR BKN070 OVC085 06/06 A3019 RMK AO2 P0001 T00610056
KIPT 241654Z 27004KT 2SM -RA BR BKN004 OVC080 06/06 A3018 RMK AO2 SLP225 P0004 T00560056
KIPT 241554Z 25003KT 2SM -RA BR BKN004 OVC085 05/05 A3020 RMK AO2 SLP232 P0007 T00500050
KIPT 241538Z 25004KT 2SM -RA BR SCT004 OVC085 05/05 A3020 RMK AO2 P0005 T00500050
KIPT 241456Z 27003KT 2SM -RA BR OVC003 04/04 A3022 RMK AO2 P0000 T00440044
KIPT 241454Z 27003KT 1 1/2SM -RA BR OVC003 05/05 A3022 RMK AO2 RAB1356 SLP238 P0001 60001 T00500050 53010
KIPT 241354Z 30005KT 1SM BR OVC003 04/04 A3021 RMK AO2 SLP233 T00440044
KIPT 241347Z 31004KT 1SM BR OVC003 04/04 A3021 RMK AO2 T00440044
KIPT 241312Z 28003KT 3/4SM BR OVC003 05/04 A3019 RMK AO2 T00500044
KIPT 241306Z 29003KT 2 1/2SM BR OVC003 05/05 A3018 RMK AO2 T00500050
KIPT 241254Z 28004KT 1SM BR OVC003 05/05 A3019 RMK AO2 SLP227 T00500050
KIPT 241241Z 26004KT 1/4SM FG OVC002 04/04 A3019 RMK AO2 T00440044
KIPT 241154Z 00000KT 1SM BR OVC004 04/04 A3019 RMK AO2 SLP229 70019 T00440044 10050 20044 51006
KIPT 241150Z 00000KT 1SM BR OVC004 04/04 A3019 RMK AO2
KIPT 241141Z 32004KT 1/2SM FG VV004 04/04 A3020 RMK AO2 T00440044
KIPT 241054Z AUTO 27004KT 1/4SM FG VV002 04/04 A3020 RMK AO2 SLP230 T00440044
KIPT 240954Z AUTO 00000KT 1/4SM FG VV002 04/04 A3018 RMK AO2 SLP222 T00440044
KIPT 240854Z AUTO 00000KT 1/4SM FG VV002 04/04 A3017 RMK AO2 SLP220 T00440044 55003
KIPT 240754Z AUTO 00000KT 1/4SM FG VV002 04/04 A3017 RMK AO2 SLP219 T00440044
KIPT 240654Z AUTO 00000KT 1/4SM FG VV002 04/04 A3018 RMK AO2 SLP223 T00440044
KIPT 240639Z AUTO 00000KT 1/2SM FG VV002 04/04 A3018 RMK AO2 T00440044
KIPT 240615Z AUTO 00000KT 1 1/4SM BR OVC002 05/04 A3018 RMK AO2 T00500044
KIPT 240606Z AUTO 00000KT 2SM BR OVC002 05/04 A3018 RMK AO2 T00500044
KIPT 240554Z AUTO 00000KT 3SM BR OVC003 05/04 A3018 RMK AO2 SLP224 60000 T00500044 10050 20044 55005
KIPT 240506Z AUTO 00000KT 4SM BR OVC003 05/04 A3017 RMK AO2 T00500044
KIPT 240454Z AUTO 00000KT 4SM BR OVC005 04/04 A3017 RMK AO2 SLP221 T00440044 400500028
KIPT 240354Z AUTO 09004KT 6SM BR OVC005 05/04 A3018 RMK AO2 SLP224 T00500044
KIPT 240318Z 10006KT 7SM OVC005 05/04 A3019 RMK AO2 T00500044
KIPT 240254Z 09005KT 8SM OVC007 05/04 A3020 RMK AO2 SLP229 60000 T00500044 56019
KIPT 240154Z 11005KT 10SM OVC008 05/04 A3021 RMK AO2 SLP235 T00500044
KIPT 240134Z 16003KT 10SM OVC008 04/04 A3022 RMK AO2 CIG 007V011 T00440039
KIPT 240054Z VRB03KT 9SM OVC010 05/04 A3023 RMK AO2 RAB15E27 CIG 008V013 SLP240 P0000 T00500039
KIPT 240035Z VRB03KT 10SM OVC010 04/04 A3024 RMK AO2 RAB15E27 CIG 008V013 P0000 T00440039
KIPT 232354Z VRB06KT 9SM OVC009 04/03 A3025 RMK AO2 SLP249 60018 T00440033 10044 20039 56015
KIPT 232325Z VRB06KT 10SM OVC009 04/03 A3026 RMK AO2 T00440033
KIPT 232254Z 09010KT 10SM SCT008 OVC011 04/03 A3026 RMK AO2 WSHFT 2207 RAE25 SLP252 P0001 T00440033
KIPT 232227Z 09010KT 10SM SCT008 OVC011 04/03 A3026 RMK AO2 WSHFT 2207 RAE25 P0001 T00440028
KIPT 232201Z 09010KT 3SM -RA BR SCT008 OVC011 04/03 A3027 RMK AO2 P0000 T00440028
KIPT 232154Z 09010KT 4SM -RA BR OVC011 04/03 A3028 RMK AO2 RAB52 SLP256 P0000 T00440028
KIPT 232054Z VRB06G24KT 4SM BR SCT008 OVC012 04/03 A3030 RMK AO2 RAE32 SLP264 P0002 60017 T00440028 56028
KIPT 231954Z 09005G20KT 3SM -RA BR SCT006 OVC010 04/03 A3033 RMK AO2 SLP273 P0014 T00440028
KIPT 231905Z 06010G24KT 020V110 3SM RA BR SCT006 OVC010 04/03 A3034 RMK AO2 P0003 T00390028
KIPT 231854Z 36009G15KT 320V030 4SM -RA BR OVC009 04/03 A3035 RMK AO2 SLP282 P0001 T00390028
KIPT 231754Z 06007G19KT 030V100 3SM -RA BR OVC009 04/02 A3038 RMK AO2 SLP293 P0001 60001 T00390022 10039 20028 58040